Airfield :
LOGIN :

Register | Disclaimer

   EN    FR    IT 

 










Legend :    VFR   Marginal VFR   IFR   Intensive IFR   Very Intensive IFR
Visi :
Ceiling :
>= 8 km
>= 3000ft
5 to 8 km
1000 to 3000 ft
1500m to 5 km
500 to 1000 ft
800 to 1500m
200 to 500 ft
< 800m
< 200 ft
Symbols :   Thunderstorms  Fog  Heavy snow  Heavy precipitations  Wind > 20 kt
SIGMETs :     Misc.  Thunderstorms  Icing  Turbulence  Mountain Waves  Volcanic Ashes







- Airport Elevation : 1197 ft
- IATA code : SPM


ETAD - Spangdahlem Ab

CURRENT METAR :
  • 251356Z AUTO 20004KT 9999 CLR 24/13 A3007 RMK AO2 SLP163 T02360132 $

EXPIRED METARs :
  • 251256Z AUTO 00000KT 9999 FEW034 22/13 A3008 RMK AO2 SLP168 T02240132 $
  • 251156Z AUTO 10004KT 9999 CLR 21/16 A3008 RMK AO2 SLP169 70026 T02110156 10213 20141 58004 $

TAF TAF ETAD
Valid from the 25 at 11:00 until the 26 at 17:00 UTC


251104Z 2511/2617 09009KT 9999 FEW015 QNH3003INS
BECMG 2521/2522 06006KT 5000 BR SCT010 QNH3006INS
BECMG 2600/2601 05006KT 0800 FG SCT005 QNH3006INS
BECMG 2604/2605 VRB06KT 2400 BR BKN002 QNH3009INS
TEMPO 2605/2608 5000 BR BKN005
BECMG 2607/2608 09009KT 9999 NSW SCT007 BKN020 QNH3010INS TX23/2514Z TN13/2604Z
No reported NOTAMs for that airfield.



MET'MAP, your aeronautical weather chart ! - Copyright ORBIFLY December 2007 - Disclaimer

ORBIFLY MET'MAP TEAM :

Programming & Development : Alexandra Zaïnal
Concept & Development : Baudouin d'Aumeries
Co-Development & Prog : Marc-Olivier Méhu
Technical & hardware support : Manuel Goepfert

Contact : metmap@orbifly.com




SOURCES & CREDITS :

   NOAA